sensor_id;sensor_type;location;lat;lon;timestamp;P1;durP1;ratioP1;P2;durP2;ratioP2
47545;SDS011;50104;52.002;4.688;2023-07-24T00:04:58;3.72;;;3.20;;
47545;SDS011;50104;52.002;4.688;2023-07-24T00:09:59;3.95;;;3.35;;
47545;SDS011;50104;52.002;4.688;2023-07-24T00:15:00;3.90;;;3.17;;
47545;SDS011;50104;52.002;4.688;2023-07-24T00:20:00;4.05;;;3.38;;
47545;SDS011;50104;52.002;4.688;2023-07-24T00:25:01;3.50;;;3.20;;
47545;SDS011;50104;52.002;4.688;2023-07-24T00:30:02;4.07;;;3.40;;
47545;SDS011;50104;52.002;4.688;2023-07-24T00:35:04;4.78;;;3.38;;
47545;SDS011;50104;52.002;4.688;2023-07-24T00:40:05;5.22;;;3.55;;
47545;SDS011;50104;52.002;4.688;2023-07-24T00:45:07;4.35;;;3.15;;
47545;SDS011;50104;52.002;4.688;2023-07-24T00:50:09;3.25;;;2.88;;
47545;SDS011;50104;52.002;4.688;2023-07-24T00:55:12;3.30;;;2.97;;
47545;SDS011;50104;52.002;4.688;2023-07-24T01:00:13;5.28;;;3.17;;
47545;SDS011;50104;52.002;4.688;2023-07-24T01:05:14;4.00;;;3.00;;
47545;SDS011;50104;52.002;4.688;2023-07-24T01:10:16;3.90;;;2.92;;
47545;SDS011;50104;52.002;4.688;2023-07-24T01:15:19;6.22;;;3.47;;
47545;SDS011;50104;52.002;4.688;2023-07-24T01:20:37;4.38;;;2.92;;
47545;SDS011;50104;52.002;4.688;2023-07-24T01:26:04;3.45;;;3.05;;
47545;SDS011;50104;52.002;4.688;2023-07-24T01:31:05;5.80;;;3.65;;
47545;SDS011;50104;52.002;4.688;2023-07-24T01:36:06;5.05;;;3.50;;
47545;SDS011;50104;52.002;4.688;2023-07-24T01:41:07;5.60;;;3.50;;
47545;SDS011;50104;52.002;4.688;2023-07-24T01:46:08;4.43;;;3.15;;
47545;SDS011;50104;52.002;4.688;2023-07-24T01:51:09;4.97;;;3.50;;
47545;SDS011;50104;52.002;4.688;2023-07-24T01:56:10;6.97;;;3.70;;
47545;SDS011;50104;52.002;4.688;2023-07-24T02:01:10;4.00;;;3.45;;
47545;SDS011;50104;52.002;4.688;2023-07-24T02:06:11;5.93;;;3.40;;
47545;SDS011;50104;52.002;4.688;2023-07-24T02:11:12;5.55;;;3.38;;
47545;SDS011;50104;52.002;4.688;2023-07-24T02:16:13;5.25;;;3.90;;
47545;SDS011;50104;52.002;4.688;2023-07-24T02:21:13;4.05;;;3.63;;
47545;SDS011;50104;52.002;4.688;2023-07-24T02:26:14;6.47;;;4.28;;
47545;SDS011;50104;52.002;4.688;2023-07-24T02:31:15;4.82;;;3.83;;
47545;SDS011;50104;52.002;4.688;2023-07-24T02:36:16;6.05;;;3.78;;
47545;SDS011;50104;52.002;4.688;2023-07-24T02:41:16;6.45;;;4.80;;
47545;SDS011;50104;52.002;4.688;2023-07-24T02:46:17;6.78;;;4.53;;
47545;SDS011;50104;52.002;4.688;2023-07-24T02:51:18;6.93;;;5.50;;
47545;SDS011;50104;52.002;4.688;2023-07-24T02:56:19;8.88;;;5.28;;
47545;SDS011;50104;52.002;4.688;2023-07-24T03:01:20;7.13;;;5.30;;
47545;SDS011;50104;52.002;4.688;2023-07-24T03:06:21;8.63;;;5.45;;
47545;SDS011;50104;52.002;4.688;2023-07-24T03:11:22;8.45;;;5.63;;
47545;SDS011;50104;52.002;4.688;2023-07-24T03:16:22;6.72;;;5.25;;
47545;SDS011;50104;52.002;4.688;2023-07-24T03:21:23;9.70;;;5.95;;
47545;SDS011;50104;52.002;4.688;2023-07-24T03:26:24;8.75;;;5.50;;
47545;SDS011;50104;52.002;4.688;2023-07-24T03:31:24;6.70;;;4.68;;
47545;SDS011;50104;52.002;4.688;2023-07-24T03:36:25;6.75;;;5.07;;
47545;SDS011;50104;52.002;4.688;2023-07-24T03:41:26;8.73;;;4.65;;
47545;SDS011;50104;52.002;4.688;2023-07-24T03:46:27;6.55;;;4.63;;
47545;SDS011;50104;52.002;4.688;2023-07-24T03:51:27;6.45;;;4.65;;
47545;SDS011;50104;52.002;4.688;2023-07-24T03:56:28;8.45;;;4.80;;
47545;SDS011;50104;52.002;4.688;2023-07-24T04:01:29;7.25;;;4.70;;
47545;SDS011;50104;52.002;4.688;2023-07-24T04:06:30;7.10;;;4.75;;
47545;SDS011;50104;52.002;4.688;2023-07-24T04:11:30;6.75;;;5.40;;
47545;SDS011;50104;52.002;4.688;2023-07-24T04:16:31;10.95;;;6.20;;
47545;SDS011;50104;52.002;4.688;2023-07-24T04:21:32;7.88;;;5.65;;
47545;SDS011;50104;52.002;4.688;2023-07-24T04:26:33;9.73;;;5.80;;
47545;SDS011;50104;52.002;4.688;2023-07-24T04:31:33;9.38;;;5.80;;
47545;SDS011;50104;52.002;4.688;2023-07-24T04:36:34;8.82;;;5.72;;
47545;SDS011;50104;52.002;4.688;2023-07-24T04:41:35;10.05;;;5.57;;
47545;SDS011;50104;52.002;4.688;2023-07-24T04:46:36;10.52;;;5.07;;
47545;SDS011;50104;52.002;4.688;2023-07-24T04:51:36;10.45;;;4.32;;
47545;SDS011;50104;52.002;4.688;2023-07-24T04:56:37;6.53;;;3.13;;
47545;SDS011;50104;52.002;4.688;2023-07-24T05:01:38;6.97;;;3.17;;
47545;SDS011;50104;52.002;4.688;2023-07-24T05:06:39;5.75;;;3.47;;
47545;SDS011;50104;52.002;4.688;2023-07-24T05:11:40;6.38;;;2.92;;
47545;SDS011;50104;52.002;4.688;2023-07-24T05:16:44;8.40;;;3.67;;
47545;SDS011;50104;52.002;4.688;2023-07-24T05:21:45;4.50;;;3.47;;
47545;SDS011;50104;52.002;4.688;2023-07-24T05:26:46;8.90;;;3.70;;
47545;SDS011;50104;52.002;4.688;2023-07-24T05:31:46;9.50;;;3.13;;
47545;SDS011;50104;52.002;4.688;2023-07-24T05:36:47;6.78;;;3.33;;
47545;SDS011;50104;52.002;4.688;2023-07-24T05:41:48;7.38;;;2.83;;
47545;SDS011;50104;52.002;4.688;2023-07-24T05:46:49;6.28;;;3.35;;
47545;SDS011;50104;52.002;4.688;2023-07-24T05:51:50;6.78;;;3.20;;
47545;SDS011;50104;52.002;4.688;2023-07-24T05:56:52;7.30;;;2.97;;
47545;SDS011;50104;52.002;4.688;2023-07-24T06:01:53;4.13;;;2.65;;
47545;SDS011;50104;52.002;4.688;2023-07-24T06:06:53;8.57;;;2.80;;
47545;SDS011;50104;52.002;4.688;2023-07-24T06:11:54;9.73;;;3.00;;
47545;SDS011;50104;52.002;4.688;2023-07-24T06:16:55;6.35;;;2.72;;
47545;SDS011;50104;52.002;4.688;2023-07-24T06:21:56;7.60;;;3.13;;
47545;SDS011;50104;52.002;4.688;2023-07-24T06:26:56;10.07;;;3.15;;
47545;SDS011;50104;52.002;4.688;2023-07-24T06:31:57;6.03;;;3.15;;
47545;SDS011;50104;52.002;4.688;2023-07-24T06:36:58;5.55;;;3.35;;
47545;SDS011;50104;52.002;4.688;2023-07-24T06:41:59;7.40;;;3.60;;
47545;SDS011;50104;52.002;4.688;2023-07-24T06:46:59;7.00;;;3.72;;
47545;SDS011;50104;52.002;4.688;2023-07-24T06:52:00;10.98;;;4.30;;
47545;SDS011;50104;52.002;4.688;2023-07-24T06:57:01;8.68;;;3.38;;
47545;SDS011;50104;52.002;4.688;2023-07-24T07:02:02;6.38;;;3.08;;
47545;SDS011;50104;52.002;4.688;2023-07-24T07:07:04;8.02;;;3.47;;
47545;SDS011;50104;52.002;4.688;2023-07-24T07:12:04;7.78;;;3.85;;
47545;SDS011;50104;52.002;4.688;2023-07-24T07:17:06;5.07;;;3.30;;
47545;SDS011;50104;52.002;4.688;2023-07-24T07:22:06;6.93;;;3.05;;
47545;SDS011;50104;52.002;4.688;2023-07-24T07:27:07;8.90;;;3.20;;
47545;SDS011;50104;52.002;4.688;2023-07-24T07:32:08;8.23;;;3.47;;
47545;SDS011;50104;52.002;4.688;2023-07-24T07:37:09;7.85;;;3.70;;
47545;SDS011;50104;52.002;4.688;2023-07-24T07:42:10;11.77;;;3.60;;
47545;SDS011;50104;52.002;4.688;2023-07-24T07:47:11;10.43;;;4.80;;
47545;SDS011;50104;52.002;4.688;2023-07-24T07:52:11;10.30;;;3.97;;
47545;SDS011;50104;52.002;4.688;2023-07-24T07:57:15;8.43;;;3.88;;
47545;SDS011;50104;52.002;4.688;2023-07-24T08:02:16;6.57;;;4.35;;
47545;SDS011;50104;52.002;4.688;2023-07-24T08:07:16;6.68;;;5.00;;
47545;SDS011;50104;52.002;4.688;2023-07-24T08:12:17;8.80;;;4.68;;
47545;SDS011;50104;52.002;4.688;2023-07-24T08:17:18;6.20;;;4.72;;
47545;SDS011;50104;52.002;4.688;2023-07-24T08:22:19;8.90;;;5.43;;
47545;SDS011;50104;52.002;4.688;2023-07-24T08:27:22;7.85;;;4.50;;
47545;SDS011;50104;52.002;4.688;2023-07-24T08:32:23;6.35;;;5.00;;
47545;SDS011;50104;52.002;4.688;2023-07-24T08:37:24;5.85;;;5.18;;
47545;SDS011;50104;52.002;4.688;2023-07-24T08:42:24;12.35;;;6.22;;
47545;SDS011;50104;52.002;4.688;2023-07-24T08:47:25;9.80;;;4.78;;
47545;SDS011;50104;52.002;4.688;2023-07-24T08:52:27;8.85;;;5.57;;
47545;SDS011;50104;52.002;4.688;2023-07-24T08:57:28;9.77;;;4.75;;
47545;SDS011;50104;52.002;4.688;2023-07-24T09:02:30;5.90;;;3.85;;
47545;SDS011;50104;52.002;4.688;2023-07-24T09:07:35;6.70;;;4.50;;
47545;SDS011;50104;52.002;4.688;2023-07-24T09:12:37;9.82;;;4.40;;
47545;SDS011;50104;52.002;4.688;2023-07-24T09:17:46;6.35;;;3.50;;
47545;SDS011;50104;52.002;4.688;2023-07-24T09:22:51;6.40;;;4.03;;
47545;SDS011;50104;52.002;4.688;2023-07-24T09:27:53;8.20;;;3.95;;
47545;SDS011;50104;52.002;4.688;2023-07-24T09:32:54;6.25;;;3.70;;
47545;SDS011;50104;52.002;4.688;2023-07-24T09:38:08;7.45;;;3.75;;
47545;SDS011;50104;52.002;4.688;2023-07-24T09:43:21;6.00;;;3.33;;
47545;SDS011;50104;52.002;4.688;2023-07-24T09:48:24;4.70;;;3.80;;
47545;SDS011;50104;52.002;4.688;2023-07-24T09:58:39;6.43;;;3.45;;
47545;SDS011;50104;52.002;4.688;2023-07-24T10:03:45;6.75;;;3.65;;
47545;SDS011;50104;52.002;4.688;2023-07-24T10:08:48;4.13;;;2.92;;
47545;SDS011;50104;52.002;4.688;2023-07-24T10:13:49;6.10;;;2.97;;
47545;SDS011;50104;52.002;4.688;2023-07-24T10:18:50;4.22;;;2.70;;
47545;SDS011;50104;52.002;4.688;2023-07-24T10:23:51;5.93;;;2.90;;
47545;SDS011;50104;52.002;4.688;2023-07-24T10:28:52;4.20;;;2.67;;
47545;SDS011;50104;52.002;4.688;2023-07-24T10:33:54;5.53;;;2.72;;
47545;SDS011;50104;52.002;4.688;2023-07-24T10:38:56;7.68;;;2.60;;
47545;SDS011;50104;52.002;4.688;2023-07-24T10:43:58;3.25;;;2.67;;
47545;SDS011;50104;52.002;4.688;2023-07-24T10:49:00;4.75;;;2.80;;
47545;SDS011;50104;52.002;4.688;2023-07-24T10:54:03;6.15;;;2.90;;
47545;SDS011;50104;52.002;4.688;2023-07-24T10:59:05;4.75;;;3.22;;
47545;SDS011;50104;52.002;4.688;2023-07-24T11:04:06;5.78;;;3.00;;
47545;SDS011;50104;52.002;4.688;2023-07-24T11:09:07;3.67;;;2.58;;
47545;SDS011;50104;52.002;4.688;2023-07-24T11:14:13;3.08;;;2.55;;
47545;SDS011;50104;52.002;4.688;2023-07-24T11:19:21;4.70;;;2.85;;
47545;SDS011;50104;52.002;4.688;2023-07-24T11:24:24;4.00;;;2.80;;
47545;SDS011;50104;52.002;4.688;2023-07-24T11:29:25;4.32;;;3.00;;
47545;SDS011;50104;52.002;4.688;2023-07-24T11:34:26;3.53;;;3.20;;
47545;SDS011;50104;52.002;4.688;2023-07-24T11:39:27;4.93;;;3.38;;
47545;SDS011;50104;52.002;4.688;2023-07-24T11:44:28;5.60;;;3.70;;
47545;SDS011;50104;52.002;4.688;2023-07-24T11:49:29;6.13;;;3.70;;
47545;SDS011;50104;52.002;4.688;2023-07-24T11:54:34;5.07;;;3.45;;
47545;SDS011;50104;52.002;4.688;2023-07-24T11:59:37;5.03;;;3.58;;
47545;SDS011;50104;52.002;4.688;2023-07-24T12:04:39;5.68;;;3.50;;
47545;SDS011;50104;52.002;4.688;2023-07-24T12:09:40;3.58;;;3.03;;
47545;SDS011;50104;52.002;4.688;2023-07-24T12:14:41;3.40;;;2.88;;
47545;SDS011;50104;52.002;4.688;2023-07-24T12:19:41;3.40;;;2.88;;
47545;SDS011;50104;52.002;4.688;2023-07-24T12:24:42;4.53;;;2.08;;
47545;SDS011;50104;52.002;4.688;2023-07-24T12:29:43;2.88;;;2.00;;
47545;SDS011;50104;52.002;4.688;2023-07-24T12:34:46;3.35;;;2.83;;
47545;SDS011;50104;52.002;4.688;2023-07-24T12:39:47;2.47;;;2.28;;
47545;SDS011;50104;52.002;4.688;2023-07-24T12:44:49;2.90;;;2.00;;
47545;SDS011;50104;52.002;4.688;2023-07-24T12:49:50;2.28;;;2.00;;
47545;SDS011;50104;52.002;4.688;2023-07-24T12:54:53;2.35;;;2.15;;
47545;SDS011;50104;52.002;4.688;2023-07-24T12:59:53;2.13;;;1.92;;
47545;SDS011;50104;52.002;4.688;2023-07-24T13:04:54;2.20;;;1.65;;
47545;SDS011;50104;52.002;4.688;2023-07-24T13:09:55;2.00;;;1.55;;
47545;SDS011;50104;52.002;4.688;2023-07-24T13:14:56;2.22;;;1.30;;
47545;SDS011;50104;52.002;4.688;2023-07-24T13:19:56;1.58;;;1.20;;
47545;SDS011;50104;52.002;4.688;2023-07-24T13:24:57;2.67;;;1.60;;
47545;SDS011;50104;52.002;4.688;2023-07-24T13:29:58;6.25;;;1.70;;
47545;SDS011;50104;52.002;4.688;2023-07-24T13:34:59;3.20;;;1.55;;
47545;SDS011;50104;52.002;4.688;2023-07-24T13:40:00;2.88;;;1.25;;
47545;SDS011;50104;52.002;4.688;2023-07-24T13:45:01;5.53;;;1.20;;
47545;SDS011;50104;52.002;4.688;2023-07-24T13:50:01;5.75;;;1.50;;
47545;SDS011;50104;52.002;4.688;2023-07-24T13:55:04;3.35;;;0.90;;
47545;SDS011;50104;52.002;4.688;2023-07-24T14:00:05;5.47;;;1.52;;
47545;SDS011;50104;52.002;4.688;2023-07-24T14:05:06;5.38;;;2.13;;
47545;SDS011;50104;52.002;4.688;2023-07-24T14:10:08;5.55;;;1.88;;
47545;SDS011;50104;52.002;4.688;2023-07-24T14:15:09;3.80;;;1.17;;
47545;SDS011;50104;52.002;4.688;2023-07-24T14:20:10;3.45;;;1.17;;
47545;SDS011;50104;52.002;4.688;2023-07-24T14:25:11;2.38;;;0.90;;
47545;SDS011;50104;52.002;4.688;2023-07-24T14:30:12;2.38;;;1.00;;
47545;SDS011;50104;52.002;4.688;2023-07-24T14:35:13;3.92;;;0.88;;
47545;SDS011;50104;52.002;4.688;2023-07-24T14:40:14;3.50;;;0.90;;
47545;SDS011;50104;52.002;4.688;2023-07-24T14:45:14;4.20;;;1.30;;
47545;SDS011;50104;52.002;4.688;2023-07-24T14:50:15;4.88;;;0.80;;
47545;SDS011;50104;52.002;4.688;2023-07-24T14:55:16;5.72;;;0.93;;
47545;SDS011;50104;52.002;4.688;2023-07-24T15:00:17;2.67;;;0.90;;
47545;SDS011;50104;52.002;4.688;2023-07-24T15:05:18;4.22;;;1.10;;
47545;SDS011;50104;52.002;4.688;2023-07-24T15:10:19;2.80;;;0.75;;
47545;SDS011;50104;52.002;4.688;2023-07-24T15:15:21;2.47;;;0.70;;
47545;SDS011;50104;52.002;4.688;2023-07-24T15:20:22;3.67;;;0.50;;
47545;SDS011;50104;52.002;4.688;2023-07-24T15:25:22;1.15;;;0.50;;
47545;SDS011;50104;52.002;4.688;2023-07-24T15:30:24;0.73;;;0.50;;
47545;SDS011;50104;52.002;4.688;2023-07-24T15:35:25;0.95;;;0.40;;
47545;SDS011;50104;52.002;4.688;2023-07-24T15:40:25;1.05;;;0.52;;
47545;SDS011;50104;52.002;4.688;2023-07-24T15:45:26;2.53;;;0.40;;
47545;SDS011;50104;52.002;4.688;2023-07-24T15:50:27;2.80;;;0.35;;
47545;SDS011;50104;52.002;4.688;2023-07-24T15:55:28;2.88;;;0.85;;
47545;SDS011;50104;52.002;4.688;2023-07-24T16:00:29;1.63;;;0.88;;
47545;SDS011;50104;52.002;4.688;2023-07-24T16:05:29;1.95;;;0.70;;
47545;SDS011;50104;52.002;4.688;2023-07-24T16:10:31;2.67;;;0.82;;
47545;SDS011;50104;52.002;4.688;2023-07-24T16:15:32;2.80;;;0.90;;
47545;SDS011;50104;52.002;4.688;2023-07-24T16:20:33;5.88;;;1.00;;
47545;SDS011;50104;52.002;4.688;2023-07-24T16:25:35;1.17;;;0.82;;
47545;SDS011;50104;52.002;4.688;2023-07-24T16:30:35;3.17;;;0.80;;
47545;SDS011;50104;52.002;4.688;2023-07-24T16:35:36;1.20;;;0.60;;
47545;SDS011;50104;52.002;4.688;2023-07-24T16:40:37;2.58;;;0.70;;
47545;SDS011;50104;52.002;4.688;2023-07-24T16:45:38;3.03;;;0.85;;
47545;SDS011;50104;52.002;4.688;2023-07-24T16:50:39;2.90;;;1.02;;
47545;SDS011;50104;52.002;4.688;2023-07-24T16:55:39;2.45;;;0.75;;
47545;SDS011;50104;52.002;4.688;2023-07-24T17:00:40;3.72;;;0.77;;
47545;SDS011;50104;52.002;4.688;2023-07-24T17:05:41;1.25;;;0.70;;
47545;SDS011;50104;52.002;4.688;2023-07-24T17:10:43;2.15;;;0.60;;
47545;SDS011;50104;52.002;4.688;2023-07-24T17:15:48;2.05;;;0.73;;
47545;SDS011;50104;52.002;4.688;2023-07-24T17:20:49;3.22;;;1.02;;
47545;SDS011;50104;52.002;4.688;2023-07-24T17:25:50;2.85;;;0.85;;
47545;SDS011;50104;52.002;4.688;2023-07-24T17:30:51;3.15;;;0.90;;
47545;SDS011;50104;52.002;4.688;2023-07-24T17:35:51;2.53;;;0.98;;
47545;SDS011;50104;52.002;4.688;2023-07-24T17:40:52;6.32;;;1.10;;
47545;SDS011;50104;52.002;4.688;2023-07-24T17:45:53;2.55;;;0.70;;
47545;SDS011;50104;52.002;4.688;2023-07-24T17:50:55;2.38;;;0.75;;
47545;SDS011;50104;52.002;4.688;2023-07-24T17:55:57;3.35;;;1.00;;
47545;SDS011;50104;52.002;4.688;2023-07-24T18:00:58;1.73;;;0.90;;
47545;SDS011;50104;52.002;4.688;2023-07-24T18:05:58;2.42;;;0.98;;
47545;SDS011;50104;52.002;4.688;2023-07-24T18:10:59;2.42;;;0.90;;
47545;SDS011;50104;52.002;4.688;2023-07-24T18:16:00;2.08;;;0.90;;
47545;SDS011;50104;52.002;4.688;2023-07-24T18:21:01;2.47;;;1.00;;
47545;SDS011;50104;52.002;4.688;2023-07-24T18:26:04;4.95;;;1.08;;
47545;SDS011;50104;52.002;4.688;2023-07-24T18:31:06;2.70;;;0.98;;
47545;SDS011;50104;52.002;4.688;2023-07-24T18:36:07;4.55;;;1.00;;
47545;SDS011;50104;52.002;4.688;2023-07-24T18:41:08;3.90;;;1.00;;
47545;SDS011;50104;52.002;4.688;2023-07-24T18:46:09;7.93;;;1.33;;
47545;SDS011;50104;52.002;4.688;2023-07-24T18:51:10;4.22;;;1.25;;
47545;SDS011;50104;52.002;4.688;2023-07-24T18:56:10;5.35;;;1.08;;
47545;SDS011;50104;52.002;4.688;2023-07-24T19:01:11;3.60;;;1.25;;
47545;SDS011;50104;52.002;4.688;2023-07-24T19:06:12;4.35;;;1.27;;
47545;SDS011;50104;52.002;4.688;2023-07-24T19:11:14;4.80;;;1.10;;
47545;SDS011;50104;52.002;4.688;2023-07-24T19:16:16;3.40;;;1.17;;
47545;SDS011;50104;52.002;4.688;2023-07-24T19:21:16;4.85;;;1.10;;
47545;SDS011;50104;52.002;4.688;2023-07-24T19:26:17;3.58;;;1.20;;
47545;SDS011;50104;52.002;4.688;2023-07-24T19:31:18;4.15;;;1.27;;
47545;SDS011;50104;52.002;4.688;2023-07-24T19:36:18;5.00;;;1.35;;
47545;SDS011;50104;52.002;4.688;2023-07-24T19:41:19;7.38;;;1.52;;
47545;SDS011;50104;52.002;4.688;2023-07-24T19:46:20;7.57;;;1.20;;
47545;SDS011;50104;52.002;4.688;2023-07-24T19:51:22;4.82;;;1.33;;
47545;SDS011;50104;52.002;4.688;2023-07-24T19:56:23;4.82;;;1.38;;
47545;SDS011;50104;52.002;4.688;2023-07-24T20:01:24;3.63;;;1.27;;
47545;SDS011;50104;52.002;4.688;2023-07-24T20:06:27;4.88;;;1.33;;
47545;SDS011;50104;52.002;4.688;2023-07-24T20:11:27;2.95;;;1.20;;
47545;SDS011;50104;52.002;4.688;2023-07-24T20:16:28;6.00;;;1.45;;
47545;SDS011;50104;52.002;4.688;2023-07-24T20:21:29;2.58;;;1.23;;
47545;SDS011;50104;52.002;4.688;2023-07-24T20:26:30;6.35;;;1.75;;
47545;SDS011;50104;52.002;4.688;2023-07-24T20:31:31;6.88;;;2.47;;
47545;SDS011;50104;52.002;4.688;2023-07-24T20:36:31;5.57;;;1.95;;
47545;SDS011;50104;52.002;4.688;2023-07-24T20:41:32;7.75;;;2.30;;
47545;SDS011;50104;52.002;4.688;2023-07-24T20:46:34;4.82;;;1.33;;
47545;SDS011;50104;52.002;4.688;2023-07-24T20:51:35;4.25;;;1.50;;
47545;SDS011;50104;52.002;4.688;2023-07-24T20:56:35;7.53;;;1.65;;
47545;SDS011;50104;52.002;4.688;2023-07-24T21:01:37;6.18;;;2.22;;
47545;SDS011;50104;52.002;4.688;2023-07-24T21:06:37;5.28;;;1.70;;
47545;SDS011;50104;52.002;4.688;2023-07-24T21:11:38;3.15;;;1.55;;
47545;SDS011;50104;52.002;4.688;2023-07-24T21:16:39;3.53;;;1.67;;
47545;SDS011;50104;52.002;4.688;2023-07-24T21:21:40;3.97;;;1.58;;
47545;SDS011;50104;52.002;4.688;2023-07-24T21:26:41;4.82;;;2.03;;
47545;SDS011;50104;52.002;4.688;2023-07-24T21:31:41;7.00;;;1.73;;
47545;SDS011;50104;52.002;4.688;2023-07-24T21:36:42;2.63;;;1.45;;
47545;SDS011;50104;52.002;4.688;2023-07-24T21:41:43;5.03;;;1.70;;
47545;SDS011;50104;52.002;4.688;2023-07-24T21:46:44;9.90;;;1.80;;
47545;SDS011;50104;52.002;4.688;2023-07-24T21:51:45;8.30;;;2.53;;
47545;SDS011;50104;52.002;4.688;2023-07-24T21:56:45;8.98;;;2.30;;
47545;SDS011;50104;52.002;4.688;2023-07-24T22:01:46;5.40;;;1.77;;
47545;SDS011;50104;52.002;4.688;2023-07-24T22:06:47;5.20;;;2.20;;
47545;SDS011;50104;52.002;4.688;2023-07-24T22:11:48;6.28;;;2.47;;
47545;SDS011;50104;52.002;4.688;2023-07-24T22:16:48;5.07;;;2.45;;
47545;SDS011;50104;52.002;4.688;2023-07-24T22:21:49;6.88;;;2.85;;
47545;SDS011;50104;52.002;4.688;2023-07-24T22:26:50;4.43;;;1.83;;
47545;SDS011;50104;52.002;4.688;2023-07-24T22:31:51;5.25;;;2.58;;
47545;SDS011;50104;52.002;4.688;2023-07-24T22:36:51;6.15;;;2.35;;
47545;SDS011;50104;52.002;4.688;2023-07-24T22:41:52;3.65;;;1.85;;
47545;SDS011;50104;52.002;4.688;2023-07-24T22:46:53;6.32;;;2.10;;
47545;SDS011;50104;52.002;4.688;2023-07-24T22:51:54;4.28;;;2.50;;
47545;SDS011;50104;52.002;4.688;2023-07-24T22:56:55;4.43;;;2.20;;
47545;SDS011;50104;52.002;4.688;2023-07-24T23:01:56;5.85;;;2.63;;
47545;SDS011;50104;52.002;4.688;2023-07-24T23:06:57;7.45;;;2.30;;
47545;SDS011;50104;52.002;4.688;2023-07-24T23:11:59;4.57;;;2.13;;
47545;SDS011;50104;52.002;4.688;2023-07-24T23:17:00;5.00;;;2.38;;
47545;SDS011;50104;52.002;4.688;2023-07-24T23:22:01;3.58;;;2.28;;
47545;SDS011;50104;52.002;4.688;2023-07-24T23:27:02;4.47;;;2.30;;
47545;SDS011;50104;52.002;4.688;2023-07-24T23:32:03;4.90;;;2.13;;
47545;SDS011;50104;52.002;4.688;2023-07-24T23:37:04;5.47;;;2.35;;
47545;SDS011;50104;52.002;4.688;2023-07-24T23:42:05;3.33;;;2.30;;
47545;SDS011;50104;52.002;4.688;2023-07-24T23:47:06;6.38;;;2.35;;
47545;SDS011;50104;52.002;4.688;2023-07-24T23:52:07;5.53;;;2.47;;
47545;SDS011;50104;52.002;4.688;2023-07-24T23:57:07;3.80;;;2.50;;
